In Rescue
 
Open Full Screen Window  High Contrast Mode
Wind Gusting 00 knots
07
May 28, 2020 4:27 PM EDT
Weather Information
Wind Direction
  220 °
Wind Speed
  07 kt (8 mph)
Wind Gust
  00 kt (0 mph)
Altimeter
29.94 in
Visibility
10 SM
Temperature
24° C
75° F
Dewpoint
18° C
64° F
Humidity
69%
1hr Rain Fall
00.00 in.
24hr Rain Fall
00.28 in.
Sky Condition
Broken @ 3,400 ft
Broken @ 2,800 ft
Scattered @ 2,100 ft
MVFR

METAR KPOV 282027Z AUTO 22007KT 10SM SCT021 BKN028 BKN034 24/18 A2994 RMK AO2 T02390179 PWINO

FAA Disclaimer: The data displayed is for advisory purposes only and is not to be used for flight planning or operations.